Time;durP1;ratioP1;P1;durP2;ratioP2;P2;SDS_P1;SDS_P2;PMS_P1;PMS_P2;Temp;Humidity;BMP_temperature;BMP_pressure;BME280_temperature;BME280_humidity;BME280_pressure;Samples;Min_cycle;Max_cycle;Signal;HPM_P1;HPM_P2
2020/11/24 00:00:41;;;;;;;41.14999;20.7;;;;;;;5.68;82.52148;96298.85;;;;
2020/11/24 00:01:41;;;;;;;41.14999;20.7;;;;;;;5.68;82.52148;96298.85;;;;
2020/11/24 00:02:42;;;;;;;41.14999;20.7;;;;;;;5.68;82.52148;96298.85;;;;
2020/11/24 00:03:42;;;;;;;41.14999;20.7;;;;;;;5.68;82.52148;96298.85;;;;
2020/11/24 00:04:43;;;;;;;41.14999;20.7;;;;;;;5.68;82.52148;96298.85;;;;
2020/11/24 00:05:43;;;;;;;41.14999;20.7;;;;;;;5.68;82.52148;96298.85;;;;
2020/11/24 00:06:44;;;;;;;41.14999;20.7;;;;;;;5.68;82.52148;96298.85;;;;
2020/11/24 00:07:44;;;;;;;41.14999;20.7;;;;;;;5.68;82.52148;96298.85;;;;
2020/11/24 00:08:45;;;;;;;41.14999;20.7;;;;;;;5.68;82.52148;96298.85;;;;
2020/11/24 00:09:45;;;;;;;41.14999;20.7;;;;;;;5.68;82.52148;96298.85;;;;
2020/11/24 00:10:46;;;;;;;40.5;20;;;;;;;5.66;82.73926;96306.64;;;;
2020/11/24 00:11:46;;;;;;;40.5;20;;;;;;;5.66;82.73926;96306.64;;;;
2020/11/24 00:12:47;;;;;;;40.5;20;;;;;;;5.66;82.73926;96306.64;;;;
2020/11/24 00:13:47;;;;;;;40.5;20;;;;;;;5.66;82.73926;96306.64;;;;
2020/11/24 00:14:48;;;;;;;40.5;20;;;;;;;5.66;82.73926;96306.64;;;;
2020/11/24 00:15:48;;;;;;;40.5;20;;;;;;;5.66;82.73926;96306.64;;;;
2020/11/24 00:16:49;;;;;;;40.5;20;;;;;;;5.66;82.73926;96306.64;;;;
2020/11/24 00:17:49;;;;;;;40.5;20;;;;;;;5.66;82.73926;96306.64;;;;
2020/11/24 00:18:50;;;;;;;40.5;20;;;;;;;5.66;82.73926;96306.64;;;;
2020/11/24 00:19:50;;;;;;;40.5;20;;;;;;;5.66;82.73926;96306.64;;;;
2020/11/24 00:20:51;;;;;;;41.5;20.5;;;;;;;5.58;82.77734;96297.32;;;;
2020/11/24 00:21:51;;;;;;;41.5;20.5;;;;;;;5.58;82.77734;96297.32;;;;
2020/11/24 00:22:52;;;;;;;41.5;20.5;;;;;;;5.58;82.77734;96297.32;;;;
2020/11/24 00:23:52;;;;;;;41.5;20.5;;;;;;;5.58;82.77734;96297.32;;;;
2020/11/24 00:24:53;;;;;;;41.5;20.5;;;;;;;5.58;82.77734;96297.32;;;;
2020/11/24 00:25:53;;;;;;;41.5;20.5;;;;;;;5.58;82.77734;96297.32;;;;
2020/11/24 00:26:54;;;;;;;41.5;20.5;;;;;;;5.58;82.77734;96297.32;;;;
2020/11/24 00:27:54;;;;;;;41.5;20.5;;;;;;;5.58;82.77734;96297.32;;;;
2020/11/24 00:28:55;;;;;;;41.5;20.5;;;;;;;5.58;82.77734;96297.32;;;;
2020/11/24 00:29:55;;;;;;;41.5;20.5;;;;;;;5.58;82.77734;96297.32;;;;
2020/11/24 00:30:56;;;;;;;41.5;20.5;;;;;;;5.58;82.77734;96297.32;;;;
2020/11/24 00:31:56;;;;;;;42.7;20.4;;;;;;;5.55;82.94922;96283.87;;;;
2020/11/24 00:32:57;;;;;;;42.7;20.4;;;;;;;5.55;82.94922;96283.87;;;;
2020/11/24 00:33:57;;;;;;;42.7;20.4;;;;;;;5.55;82.94922;96283.87;;;;
2020/11/24 00:34:58;;;;;;;42.7;20.4;;;;;;;5.55;82.94922;96283.87;;;;
2020/11/24 00:35:58;;;;;;;42.7;20.4;;;;;;;5.55;82.94922;96283.87;;;;
2020/11/24 00:36:59;;;;;;;42.7;20.4;;;;;;;5.55;82.94922;96283.87;;;;
2020/11/24 00:38:00;;;;;;;42.7;20.4;;;;;;;5.55;82.94922;96283.87;;;;
2020/11/24 00:39:00;;;;;;;42.7;20.4;;;;;;;5.55;82.94922;96283.87;;;;
2020/11/24 00:40:01;;;;;;;42.7;20.4;;;;;;;5.55;82.94922;96283.87;;;;
2020/11/24 00:41:01;;;;;;;42.7;20.4;;;;;;;5.55;82.94922;96283.87;;;;
2020/11/24 00:42:02;;;;;;;39.05;21.4;;;;;;;5.56;83.29102;96284.61;;;;
2020/11/24 00:43:02;;;;;;;39.05;21.4;;;;;;;5.56;83.29102;96284.61;;;;
2020/11/24 00:44:03;;;;;;;39.05;21.4;;;;;;;5.56;83.29102;96284.61;;;;
2020/11/24 00:45:03;;;;;;;39.05;21.4;;;;;;;5.56;83.29102;96284.61;;;;
2020/11/24 00:46:04;;;;;;;39.05;21.4;;;;;;;5.56;83.29102;96284.61;;;;
2020/11/24 00:47:05;;;;;;;39.05;21.4;;;;;;;5.56;83.29102;96284.61;;;;
2020/11/24 00:48:05;;;;;;;39.05;21.4;;;;;;;5.56;83.29102;96284.61;;;;
2020/11/24 00:49:06;;;;;;;39.05;21.4;;;;;;;5.56;83.29102;96284.61;;;;
2020/11/24 00:50:06;;;;;;;39.05;21.4;;;;;;;5.56;83.29102;96284.61;;;;
2020/11/24 00:51:07;;;;;;;39.05;21.4;;;;;;;5.56;83.29102;96284.61;;;;
2020/11/24 00:52:07;;;;;;;39.05;21.4;;;;;;;5.56;83.29102;96284.61;;;;
2020/11/24 00:53:08;;;;;;;43.2;23.9;;;;;;;5.54;83.13965;96264.28;;;;
2020/11/24 00:54:08;;;;;;;43.2;23.9;;;;;;;5.54;83.13965;96264.28;;;;
2020/11/24 00:55:09;;;;;;;43.2;23.9;;;;;;;5.54;83.13965;96264.28;;;;
2020/11/24 00:56:10;;;;;;;43.2;23.9;;;;;;;5.54;83.13965;96264.28;;;;
2020/11/24 00:57:10;;;;;;;43.2;23.9;;;;;;;5.54;83.13965;96264.28;;;;
2020/11/24 00:58:11;;;;;;;43.2;23.9;;;;;;;5.54;83.13965;96264.28;;;;
2020/11/24 00:59:11;;;;;;;43.2;23.9;;;;;;;5.54;83.13965;96264.28;;;;
2020/11/24 01:00:12;;;;;;;43.2;23.9;;;;;;;5.54;83.13965;96264.28;;;;
2020/11/24 01:01:13;;;;;;;43.2;23.9;;;;;;;5.54;83.13965;96264.28;;;;
2020/11/24 01:02:14;;;;;;;43.2;23.9;;;;;;;5.54;83.13965;96264.28;;;;
2020/11/24 01:03:14;;;;;;;40.85;23.4;;;;;;;5.51;83.05859;96242.39;;;;
2020/11/24 01:04:15;;;;;;;40.85;23.4;;;;;;;5.51;83.05859;96242.39;;;;
2020/11/24 01:05:15;;;;;;;40.85;23.4;;;;;;;5.51;83.05859;96242.39;;;;
2020/11/24 01:06:16;;;;;;;40.85;23.4;;;;;;;5.51;83.05859;96242.39;;;;
2020/11/24 01:07:17;;;;;;;40.85;23.4;;;;;;;5.51;83.05859;96242.39;;;;
2020/11/24 01:08:17;;;;;;;40.85;23.4;;;;;;;5.51;83.05859;96242.39;;;;
2020/11/24 01:09:18;;;;;;;40.85;23.4;;;;;;;5.51;83.05859;96242.39;;;;
2020/11/24 01:10:18;;;;;;;40.85;23.4;;;;;;;5.51;83.05859;96242.39;;;;
2020/11/24 01:11:19;;;;;;;40.85;23.4;;;;;;;5.51;83.05859;96242.39;;;;
2020/11/24 01:12:19;;;;;;;40.85;23.4;;;;;;;5.51;83.05859;96242.39;;;;
2020/11/24 01:13:20;;;;;;;40.85;23.4;;;;;;;5.51;83.05859;96242.39;;;;
2020/11/24 01:14:20;;;;;;;41.5;23.4;;;;;;;5.41;82.83789;96225.34;;;;
2020/11/24 01:15:21;;;;;;;41.5;23.4;;;;;;;5.41;82.83789;96225.34;;;;
2020/11/24 01:16:21;;;;;;;41.5;23.4;;;;;;;5.41;82.83789;96225.34;;;;
2020/11/24 01:17:22;;;;;;;41.5;23.4;;;;;;;5.41;82.83789;96225.34;;;;
2020/11/24 01:18:22;;;;;;;41.5;23.4;;;;;;;5.41;82.83789;96225.34;;;;
2020/11/24 01:19:23;;;;;;;41.5;23.4;;;;;;;5.41;82.83789;96225.34;;;;
2020/11/24 01:20:23;;;;;;;41.5;23.4;;;;;;;5.41;82.83789;96225.34;;;;
2020/11/24 01:21:24;;;;;;;41.5;23.4;;;;;;;5.41;82.83789;96225.34;;;;
2020/11/24 01:22:24;;;;;;;41.5;23.4;;;;;;;5.41;82.83789;96225.34;;;;
2020/11/24 01:23:25;;;;;;;41.5;23.4;;;;;;;5.41;82.83789;96225.34;;;;
2020/11/24 01:24:25;;;;;;;41.5;23.4;;;;;;;5.41;82.83789;96225.34;;;;
2020/11/24 01:25:26;;;;;;;41.15;23.7;;;;;;;5.03;82.87109;96214.69;;;;
2020/11/24 01:26:26;;;;;;;41.15;23.7;;;;;;;5.03;82.87109;96214.69;;;;
2020/11/24 01:27:27;;;;;;;41.15;23.7;;;;;;;5.03;82.87109;96214.69;;;;
2020/11/24 01:28:27;;;;;;;41.15;23.7;;;;;;;5.03;82.87109;96214.69;;;;
2020/11/24 01:29:28;;;;;;;41.15;23.7;;;;;;;5.03;82.87109;96214.69;;;;
2020/11/24 01:30:29;;;;;;;41.15;23.7;;;;;;;5.03;82.87109;96214.69;;;;
2020/11/24 01:31:29;;;;;;;41.15;23.7;;;;;;;5.03;82.87109;96214.69;;;;
2020/11/24 01:32:30;;;;;;;41.15;23.7;;;;;;;5.03;82.87109;96214.69;;;;
2020/11/24 01:33:30;;;;;;;41.15;23.7;;;;;;;5.03;82.87109;96214.69;;;;
2020/11/24 01:34:31;;;;;;;41.15;23.7;;;;;;;5.03;82.87109;96214.69;;;;
2020/11/24 01:35:31;;;;;;;43.39999;23.35;;;;;;;4.56;83.26465;96217.52;;;;
2020/11/24 01:36:32;;;;;;;43.39999;23.35;;;;;;;4.56;83.26465;96217.52;;;;
2020/11/24 01:37:33;;;;;;;43.39999;23.35;;;;;;;4.56;83.26465;96217.52;;;;
2020/11/24 01:38:33;;;;;;;43.39999;23.35;;;;;;;4.56;83.26465;96217.52;;;;
2020/11/24 01:39:34;;;;;;;43.39999;23.35;;;;;;;4.56;83.26465;96217.52;;;;
2020/11/24 01:40:34;;;;;;;43.39999;23.35;;;;;;;4.56;83.26465;96217.52;;;;
2020/11/24 01:41:35;;;;;;;43.39999;23.35;;;;;;;4.56;83.26465;96217.52;;;;
2020/11/24 01:42:35;;;;;;;43.39999;23.35;;;;;;;4.56;83.26465;96217.52;;;;
2020/11/24 01:43:38;;;;;;;43.39999;23.35;;;;;;;4.56;83.26465;96217.52;;;;
2020/11/24 01:44:39;;;;;;;43.39999;23.35;;;;;;;4.56;83.26465;96217.52;;;;
2020/11/24 01:45:39;;;;;;;43.39999;23.35;;;;;;;4.56;83.26465;96217.52;;;;
2020/11/24 01:46:40;;;;;;;47.45;22.65;;;;;;;4.16;83.38867;96212.38;;;;
2020/11/24 01:47:41;;;;;;;47.45;22.65;;;;;;;4.16;83.38867;96212.38;;;;
2020/11/24 01:48:42;;;;;;;47.45;22.65;;;;;;;4.16;83.38867;96212.38;;;;
2020/11/24 01:49:43;;;;;;;47.45;22.65;;;;;;;4.16;83.38867;96212.38;;;;
2020/11/24 01:50:44;;;;;;;47.45;22.65;;;;;;;4.16;83.38867;96212.38;;;;
2020/11/24 01:51:44;;;;;;;47.45;22.65;;;;;;;4.16;83.38867;96212.38;;;;
2020/11/24 01:52:45;;;;;;;47.45;22.65;;;;;;;4.16;83.38867;96212.38;;;;
2020/11/24 01:53:47;;;;;;;47.45;22.65;;;;;;;4.16;83.38867;96212.38;;;;
2020/11/24 01:54:47;;;;;;;47.45;22.65;;;;;;;4.16;83.38867;96212.38;;;;
2020/11/24 01:55:48;;;;;;;47.45;22.65;;;;;;;4.16;83.38867;96212.38;;;;
2020/11/24 01:56:48;;;;;;;46.30001;24.7;;;;;;;3.82;83.43848;96203.33;;;;
2020/11/24 01:57:49;;;;;;;46.30001;24.7;;;;;;;3.82;83.43848;96203.33;;;;
2020/11/24 01:58:49;;;;;;;46.30001;24.7;;;;;;;3.82;83.43848;96203.33;;;;
2020/11/24 01:59:50;;;;;;;46.30001;24.7;;;;;;;3.82;83.43848;96203.33;;;;
2020/11/24 02:00:51;;;;;;;46.30001;24.7;;;;;;;3.82;83.43848;96203.33;;;;
2020/11/24 02:01:51;;;;;;;46.30001;24.7;;;;;;;3.82;83.43848;96203.33;;;;
2020/11/24 02:02:52;;;;;;;46.30001;24.7;;;;;;;3.82;83.43848;96203.33;;;;
2020/11/24 02:03:57;;;;;;;46.30001;24.7;;;;;;;3.82;83.43848;96203.33;;;;
2020/11/24 02:04:58;;;;;;;46.30001;24.7;;;;;;;3.82;83.43848;96203.33;;;;
2020/11/24 02:05:58;;;;;;;46.30001;24.7;;;;;;;3.82;83.43848;96203.33;;;;
2020/11/24 02:06:59;;;;;;;46.30001;24.7;;;;;;;3.82;83.43848;96203.33;;;;
2020/11/24 02:07:59;;;;;;;53.35;25.75;;;;;;;3.73;83.4834;96205.69;;;;
2020/11/24 02:09:00;;;;;;;53.35;25.75;;;;;;;3.73;83.4834;96205.69;;;;
2020/11/24 02:10:00;;;;;;;53.35;25.75;;;;;;;3.73;83.4834;96205.69;;;;
2020/11/24 02:11:01;;;;;;;53.35;25.75;;;;;;;3.73;83.4834;96205.69;;;;
2020/11/24 02:12:01;;;;;;;53.35;25.75;;;;;;;3.73;83.4834;96205.69;;;;
2020/11/24 02:13:02;;;;;;;53.35;25.75;;;;;;;3.73;83.4834;96205.69;;;;
2020/11/24 02:14:03;;;;;;;53.35;25.75;;;;;;;3.73;83.4834;96205.69;;;;
2020/11/24 02:15:03;;;;;;;53.35;25.75;;;;;;;3.73;83.4834;96205.69;;;;
2020/11/24 02:16:04;;;;;;;53.35;25.75;;;;;;;3.73;83.4834;96205.69;;;;
2020/11/24 02:17:04;;;;;;;53.35;25.75;;;;;;;3.73;83.4834;96205.69;;;;
2020/11/24 02:18:05;;;;;;;61.65;28.15;;;;;;;3.94;83.52344;96193.54;;;;
2020/11/24 02:19:05;;;;;;;61.65;28.15;;;;;;;3.94;83.52344;96193.54;;;;
2020/11/24 02:20:06;;;;;;;61.65;28.15;;;;;;;3.94;83.52344;96193.54;;;;
2020/11/24 02:21:06;;;;;;;61.65;28.15;;;;;;;3.94;83.52344;96193.54;;;;
2020/11/24 02:22:07;;;;;;;61.65;28.15;;;;;;;3.94;83.52344;96193.54;;;;
2020/11/24 02:23:09;;;;;;;61.65;28.15;;;;;;;3.94;83.52344;96193.54;;;;
2020/11/24 02:24:12;;;;;;;61.65;28.15;;;;;;;3.94;83.52344;96193.54;;;;
2020/11/24 02:25:13;;;;;;;61.65;28.15;;;;;;;3.94;83.52344;96193.54;;;;
2020/11/24 02:26:13;;;;;;;61.65;28.15;;;;;;;3.94;83.52344;96193.54;;;;
2020/11/24 02:27:15;;;;;;;61.65;28.15;;;;;;;3.94;83.52344;96193.54;;;;
2020/11/24 02:28:16;;;;;;;61.65;28.15;;;;;;;3.94;83.52344;96193.54;;;;
2020/11/24 02:29:16;;;;;;;60.1;27.15;;;;;;;4.16;82.95703;96190.92;;;;
2020/11/24 02:30:17;;;;;;;60.1;27.15;;;;;;;4.16;82.95703;96190.92;;;;
2020/11/24 02:31:17;;;;;;;60.1;27.15;;;;;;;4.16;82.95703;96190.92;;;;
2020/11/24 02:32:18;;;;;;;60.1;27.15;;;;;;;4.16;82.95703;96190.92;;;;
2020/11/24 02:33:18;;;;;;;60.1;27.15;;;;;;;4.16;82.95703;96190.92;;;;
2020/11/24 02:34:19;;;;;;;60.1;27.15;;;;;;;4.16;82.95703;96190.92;;;;
2020/11/24 02:35:19;;;;;;;60.1;27.15;;;;;;;4.16;82.95703;96190.92;;;;
2020/11/24 02:36:20;;;;;;;60.1;27.15;;;;;;;4.16;82.95703;96190.92;;;;
2020/11/24 02:37:20;;;;;;;60.1;27.15;;;;;;;4.16;82.95703;96190.92;;;;
2020/11/24 02:38:21;;;;;;;60.1;27.15;;;;;;;4.16;82.95703;96190.92;;;;
2020/11/24 02:39:21;;;;;;;55.75;26.85;;;;;;;4.3;82.7002;96178.64;;;;
2020/11/24 02:40:22;;;;;;;55.75;26.85;;;;;;;4.3;82.7002;96178.64;;;;
2020/11/24 02:41:22;;;;;;;55.75;26.85;;;;;;;4.3;82.7002;96178.64;;;;
2020/11/24 02:42:23;;;;;;;55.75;26.85;;;;;;;4.3;82.7002;96178.64;;;;
2020/11/24 02:43:23;;;;;;;55.75;26.85;;;;;;;4.3;82.7002;96178.64;;;;
2020/11/24 02:44:24;;;;;;;55.75;26.85;;;;;;;4.3;82.7002;96178.64;;;;
2020/11/24 02:45:24;;;;;;;55.75;26.85;;;;;;;4.3;82.7002;96178.64;;;;
2020/11/24 02:46:25;;;;;;;55.75;26.85;;;;;;;4.3;82.7002;96178.64;;;;
2020/11/24 02:47:25;;;;;;;55.75;26.85;;;;;;;4.3;82.7002;96178.64;;;;
2020/11/24 02:48:26;;;;;;;55.75;26.85;;;;;;;4.3;82.7002;96178.64;;;;
2020/11/24 02:49:27;;;;;;;55.75;26.85;;;;;;;4.3;82.7002;96178.64;;;;
2020/11/24 02:50:27;;;;;;;58.95;28.5;;;;;;;4.5;82.75977;96169.7;;;;
2020/11/24 02:51:28;;;;;;;58.95;28.5;;;;;;;4.5;82.75977;96169.7;;;;
2020/11/24 02:52:28;;;;;;;58.95;28.5;;;;;;;4.5;82.75977;96169.7;;;;
2020/11/24 02:53:29;;;;;;;58.95;28.5;;;;;;;4.5;82.75977;96169.7;;;;
2020/11/24 02:54:29;;;;;;;58.95;28.5;;;;;;;4.5;82.75977;96169.7;;;;
2020/11/24 02:55:30;;;;;;;58.95;28.5;;;;;;;4.5;82.75977;96169.7;;;;
2020/11/24 02:56:30;;;;;;;58.95;28.5;;;;;;;4.5;82.75977;96169.7;;;;
2020/11/24 02:57:31;;;;;;;58.95;28.5;;;;;;;4.5;82.75977;96169.7;;;;
2020/11/24 02:58:31;;;;;;;58.95;28.5;;;;;;;4.5;82.75977;96169.7;;;;
2020/11/24 02:59:32;;;;;;;58.95;28.5;;;;;;;4.5;82.75977;96169.7;;;;
2020/11/24 03:00:32;;;;;;;58.95;28.5;;;;;;;4.5;82.75977;96169.7;;;;
2020/11/24 03:01:33;;;;;;;46.75;23.6;;;;;;;4.66;82.53711;96161.56;;;;
2020/11/24 03:02:33;;;;;;;46.75;23.6;;;;;;;4.66;82.53711;96161.56;;;;
2020/11/24 03:03:34;;;;;;;46.75;23.6;;;;;;;4.66;82.53711;96161.56;;;;
2020/11/24 03:04:35;;;;;;;46.75;23.6;;;;;;;4.66;82.53711;96161.56;;;;
2020/11/24 03:05:35;;;;;;;46.75;23.6;;;;;;;4.66;82.53711;96161.56;;;;
2020/11/24 03:06:36;;;;;;;46.75;23.6;;;;;;;4.66;82.53711;96161.56;;;;
2020/11/24 03:07:36;;;;;;;46.75;23.6;;;;;;;4.66;82.53711;96161.56;;;;
2020/11/24 03:08:37;;;;;;;46.75;23.6;;;;;;;4.66;82.53711;96161.56;;;;
2020/11/24 03:09:37;;;;;;;46.75;23.6;;;;;;;4.66;82.53711;96161.56;;;;
2020/11/24 03:10:38;;;;;;;46.75;23.6;;;;;;;4.66;82.53711;96161.56;;;;
2020/11/24 03:11:38;;;;;;;42.1;22.75;;;;;;;4.74;82.96289;96149.87;;;;
2020/11/24 03:12:39;;;;;;;42.1;22.75;;;;;;;4.74;82.96289;96149.87;;;;
2020/11/24 03:13:39;;;;;;;42.1;22.75;;;;;;;4.74;82.96289;96149.87;;;;
2020/11/24 03:14:40;;;;;;;42.1;22.75;;;;;;;4.74;82.96289;96149.87;;;;
2020/11/24 03:15:40;;;;;;;42.1;22.75;;;;;;;4.74;82.96289;96149.87;;;;
2020/11/24 03:16:41;;;;;;;42.1;22.75;;;;;;;4.74;82.96289;96149.87;;;;
2020/11/24 03:17:41;;;;;;;42.1;22.75;;;;;;;4.74;82.96289;96149.87;;;;
2020/11/24 03:18:42;;;;;;;42.1;22.75;;;;;;;4.74;82.96289;96149.87;;;;
2020/11/24 03:19:42;;;;;;;42.1;22.75;;;;;;;4.74;82.96289;96149.87;;;;
2020/11/24 03:20:43;;;;;;;42.1;22.75;;;;;;;4.74;82.96289;96149.87;;;;
2020/11/24 03:21:43;;;;;;;42.1;22.75;;;;;;;4.74;82.96289;96149.87;;;;
2020/11/24 03:22:44;;;;;;;42.1;22.95;;;;;;;4.72;82.92773;96148.8;;;;
2020/11/24 03:23:44;;;;;;;42.1;22.95;;;;;;;4.72;82.92773;96148.8;;;;
2020/11/24 03:24:45;;;;;;;42.1;22.95;;;;;;;4.72;82.92773;96148.8;;;;
2020/11/24 03:25:45;;;;;;;42.1;22.95;;;;;;;4.72;82.92773;96148.8;;;;
2020/11/24 03:26:46;;;;;;;42.1;22.95;;;;;;;4.72;82.92773;96148.8;;;;
2020/11/24 03:27:46;;;;;;;42.1;22.95;;;;;;;4.72;82.92773;96148.8;;;;
2020/11/24 03:28:47;;;;;;;42.1;22.95;;;;;;;4.72;82.92773;96148.8;;;;
2020/11/24 03:29:47;;;;;;;42.1;22.95;;;;;;;4.72;82.92773;96148.8;;;;
2020/11/24 03:30:48;;;;;;;42.1;22.95;;;;;;;4.72;82.92773;96148.8;;;;
2020/11/24 03:31:48;;;;;;;42.1;22.95;;;;;;;4.72;82.92773;96148.8;;;;
2020/11/24 03:32:48;;;;;;;41.6;23.05;;;;;;;4.69;83.15332;96138.89;;;;
2020/11/24 03:33:49;;;;;;;41.6;23.05;;;;;;;4.69;83.15332;96138.89;;;;
2020/11/24 03:34:49;;;;;;;41.6;23.05;;;;;;;4.69;83.15332;96138.89;;;;
2020/11/24 03:35:50;;;;;;;41.6;23.05;;;;;;;4.69;83.15332;96138.89;;;;
2020/11/24 03:36:50;;;;;;;41.6;23.05;;;;;;;4.69;83.15332;96138.89;;;;
2020/11/24 03:37:51;;;;;;;41.6;23.05;;;;;;;4.69;83.15332;96138.89;;;;
2020/11/24 03:38:51;;;;;;;41.6;23.05;;;;;;;4.69;83.15332;96138.89;;;;
2020/11/24 03:39:52;;;;;;;41.6;23.05;;;;;;;4.69;83.15332;96138.89;;;;
2020/11/24 03:40:52;;;;;;;41.6;23.05;;;;;;;4.69;83.15332;96138.89;;;;
2020/11/24 03:41:53;;;;;;;41.6;23.05;;;;;;;4.69;83.15332;96138.89;;;;
2020/11/24 03:42:53;;;;;;;41.6;23.05;;;;;;;4.69;83.15332;96138.89;;;;
2020/11/24 03:43:54;;;;;;;43.9;23.3;;;;;;;4.65;83.0625;96134.47;;;;
2020/11/24 03:44:54;;;;;;;43.9;23.3;;;;;;;4.65;83.0625;96134.47;;;;
2020/11/24 03:45:55;;;;;;;43.9;23.3;;;;;;;4.65;83.0625;96134.47;;;;
2020/11/24 03:46:56;;;;;;;43.9;23.3;;;;;;;4.65;83.0625;96134.47;;;;
2020/11/24 03:47:57;;;;;;;43.9;23.3;;;;;;;4.65;83.0625;96134.47;;;;
2020/11/24 03:48:58;;;;;;;43.9;23.3;;;;;;;4.65;83.0625;96134.47;;;;
2020/11/24 03:49:58;;;;;;;43.9;23.3;;;;;;;4.65;83.0625;96134.47;;;;
2020/11/24 03:50:59;;;;;;;43.9;23.3;;;;;;;4.65;83.0625;96134.47;;;;
2020/11/24 03:51:59;;;;;;;43.9;23.3;;;;;;;4.65;83.0625;96134.47;;;;
2020/11/24 03:53:00;;;;;;;43.9;23.3;;;;;;;4.65;83.0625;96134.47;;;;
2020/11/24 03:54:00;;;;;;;40.05;21.8;;;;;;;4.54;83.18945;96120.1;;;;
2020/11/24 03:55:01;;;;;;;40.05;21.8;;;;;;;4.54;83.18945;96120.1;;;;
2020/11/24 03:56:02;;;;;;;40.05;21.8;;;;;;;4.54;83.18945;96120.1;;;;
2020/11/24 03:57:03;;;;;;;40.05;21.8;;;;;;;4.54;83.18945;96120.1;;;;
2020/11/24 03:58:03;;;;;;;40.05;21.8;;;;;;;4.54;83.18945;96120.1;;;;
2020/11/24 03:59:04;;;;;;;40.05;21.8;;;;;;;4.54;83.18945;96120.1;;;;
2020/11/24 04:00:05;;;;;;;40.05;21.8;;;;;;;4.54;83.18945;96120.1;;;;
2020/11/24 04:01:06;;;;;;;40.05;21.8;;;;;;;4.54;83.18945;96120.1;;;;
2020/11/24 04:02:06;;;;;;;40.05;21.8;;;;;;;4.54;83.18945;96120.1;;;;
2020/11/24 04:03:07;;;;;;;40.05;21.8;;;;;;;4.54;83.18945;96120.1;;;;
2020/11/24 04:04:08;;;;;;;40.05;21.8;;;;;;;4.54;83.18945;96120.1;;;;
2020/11/24 04:05:09;;;;;;;40.25;20.75;;;;;;;4.54;83.56836;96117.42;;;;
2020/11/24 04:06:09;;;;;;;40.25;20.75;;;;;;;4.54;83.56836;96117.42;;;;
2020/11/24 04:07:10;;;;;;;40.25;20.75;;;;;;;4.54;83.56836;96117.42;;;;
2020/11/24 04:08:10;;;;;;;40.25;20.75;;;;;;;4.54;83.56836;96117.42;;;;
2020/11/24 04:09:11;;;;;;;40.25;20.75;;;;;;;4.54;83.56836;96117.42;;;;
2020/11/24 04:10:12;;;;;;;40.25;20.75;;;;;;;4.54;83.56836;96117.42;;;;
2020/11/24 04:11:12;;;;;;;40.25;20.75;;;;;;;4.54;83.56836;96117.42;;;;
2020/11/24 04:12:13;;;;;;;40.25;20.75;;;;;;;4.54;83.56836;96117.42;;;;
2020/11/24 04:13:13;;;;;;;40.25;20.75;;;;;;;4.54;83.56836;96117.42;;;;
2020/11/24 04:14:14;;;;;;;40.25;20.75;;;;;;;4.54;83.56836;96117.42;;;;
2020/11/24 04:15:14;;;;;;;40.25;20.75;;;;;;;4.54;83.56836;96117.42;;;;
2020/11/24 04:16:15;;;;;;;40.8;21.55;;;;;;;4.57;83.60352;96102.84;;;;
2020/11/24 04:17:15;;;;;;;40.8;21.55;;;;;;;4.57;83.60352;96102.84;;;;
2020/11/24 04:18:16;;;;;;;40.8;21.55;;;;;;;4.57;83.60352;96102.84;;;;
2020/11/24 04:19:16;;;;;;;40.8;21.55;;;;;;;4.57;83.60352;96102.84;;;;
2020/11/24 04:20:17;;;;;;;40.8;21.55;;;;;;;4.57;83.60352;96102.84;;;;
2020/11/24 04:21:17;;;;;;;40.8;21.55;;;;;;;4.57;83.60352;96102.84;;;;
2020/11/24 04:22:18;;;;;;;40.8;21.55;;;;;;;4.57;83.60352;96102.84;;;;
2020/11/24 04:23:18;;;;;;;40.8;21.55;;;;;;;4.57;83.60352;96102.84;;;;
2020/11/24 04:24:19;;;;;;;40.8;21.55;;;;;;;4.57;83.60352;96102.84;;;;
2020/11/24 04:25:19;;;;;;;40.8;21.55;;;;;;;4.57;83.60352;96102.84;;;;
2020/11/24 04:26:20;;;;;;;40.25;21.2;;;;;;;4.51;83.32715;96100.48;;;;
2020/11/24 04:27:20;;;;;;;40.25;21.2;;;;;;;4.51;83.32715;96100.48;;;;
2020/11/24 04:28:21;;;;;;;40.25;21.2;;;;;;;4.51;83.32715;96100.48;;;;
2020/11/24 04:29:21;;;;;;;40.25;21.2;;;;;;;4.51;83.32715;96100.48;;;;
2020/11/24 04:30:22;;;;;;;40.25;21.2;;;;;;;4.51;83.32715;96100.48;;;;
2020/11/24 04:31:22;;;;;;;40.25;21.2;;;;;;;4.51;83.32715;96100.48;;;;
2020/11/24 04:32:22;;;;;;;40.25;21.2;;;;;;;4.51;83.32715;96100.48;;;;
2020/11/24 04:33:23;;;;;;;40.25;21.2;;;;;;;4.51;83.32715;96100.48;;;;
2020/11/24 04:34:23;;;;;;;40.25;21.2;;;;;;;4.51;83.32715;96100.48;;;;
2020/11/24 04:35:24;;;;;;;40.25;21.2;;;;;;;4.51;83.32715;96100.48;;;;
2020/11/24 04:36:24;;;;;;;40.25;21.2;;;;;;;4.51;83.32715;96100.48;;;;
2020/11/24 04:37:25;;;;;;;38.75;20.75;;;;;;;4.53;83.63867;96095.29;;;;
2020/11/24 04:38:25;;;;;;;38.75;20.75;;;;;;;4.53;83.63867;96095.29;;;;
2020/11/24 04:39:26;;;;;;;38.75;20.75;;;;;;;4.53;83.63867;96095.29;;;;
2020/11/24 04:40:26;;;;;;;38.75;20.75;;;;;;;4.53;83.63867;96095.29;;;;
2020/11/24 04:41:27;;;;;;;38.75;20.75;;;;;;;4.53;83.63867;96095.29;;;;
2020/11/24 04:42:27;;;;;;;38.75;20.75;;;;;;;4.53;83.63867;96095.29;;;;
2020/11/24 04:43:28;;;;;;;38.75;20.75;;;;;;;4.53;83.63867;96095.29;;;;
2020/11/24 04:44:28;;;;;;;38.75;20.75;;;;;;;4.53;83.63867;96095.29;;;;
2020/11/24 04:45:29;;;;;;;38.75;20.75;;;;;;;4.53;83.63867;96095.29;;;;
2020/11/24 04:46:30;;;;;;;38.75;20.75;;;;;;;4.53;83.63867;96095.29;;;;
2020/11/24 04:47:33;;;;;;;38.55;19.55;;;;;;;4.49;83.65234;96089.98;;;;
2020/11/24 04:48:33;;;;;;;38.55;19.55;;;;;;;4.49;83.65234;96089.98;;;;
2020/11/24 04:49:34;;;;;;;38.55;19.55;;;;;;;4.49;83.65234;96089.98;;;;
2020/11/24 04:50:35;;;;;;;38.55;19.55;;;;;;;4.49;83.65234;96089.98;;;;
2020/11/24 04:51:35;;;;;;;38.55;19.55;;;;;;;4.49;83.65234;96089.98;;;;
2020/11/24 04:52:36;;;;;;;38.55;19.55;;;;;;;4.49;83.65234;96089.98;;;;
2020/11/24 04:53:36;;;;;;;38.55;19.55;;;;;;;4.49;83.65234;96089.98;;;;
2020/11/24 04:54:37;;;;;;;38.55;19.55;;;;;;;4.49;83.65234;96089.98;;;;
2020/11/24 04:55:37;;;;;;;38.55;19.55;;;;;;;4.49;83.65234;96089.98;;;;
2020/11/24 04:56:38;;;;;;;38.55;19.55;;;;;;;4.49;83.65234;96089.98;;;;
2020/11/24 04:57:50;;;;;;;38.55;19.55;;;;;;;4.49;83.65234;96089.98;;;;
2020/11/24 04:58:51;;;;;;;41.1;20.55;;;;;;;4.4;83.87695;96091.05;;;;
2020/11/24 04:59:56;;;;;;;41.1;20.55;;;;;;;4.4;83.87695;96091.05;;;;
2020/11/24 05:00:56;;;;;;;41.1;20.55;;;;;;;4.4;83.87695;96091.05;;;;
2020/11/24 05:01:57;;;;;;;41.1;20.55;;;;;;;4.4;83.87695;96091.05;;;;
2020/11/24 05:02:57;;;;;;;41.1;20.55;;;;;;;4.4;83.87695;96091.05;;;;
2020/11/24 05:03:58;;;;;;;41.1;20.55;;;;;;;4.4;83.87695;96091.05;;;;
2020/11/24 05:05:02;;;;;;;41.1;20.55;;;;;;;4.4;83.87695;96091.05;;;;
2020/11/24 05:06:06;;;;;;;41.1;20.55;;;;;;;4.4;83.87695;96091.05;;;;
2020/11/24 05:07:06;;;;;;;41.1;20.55;;;;;;;4.4;83.87695;96091.05;;;;
2020/11/24 05:08:07;;;;;;;41.1;20.55;;;;;;;4.4;83.87695;96091.05;;;;
2020/11/24 05:09:07;;;;;;;37;20.1;;;;;;;4.33;84.14648;96075.81;;;;
2020/11/24 05:10:08;;;;;;;37;20.1;;;;;;;4.33;84.14648;96075.81;;;;
2020/11/24 05:11:10;;;;;;;37;20.1;;;;;;;4.33;84.14648;96075.81;;;;
2020/11/24 05:12:11;;;;;;;37;20.1;;;;;;;4.33;84.14648;96075.81;;;;
2020/11/24 05:13:16;;;;;;;37;20.1;;;;;;;4.33;84.14648;96075.81;;;;
2020/11/24 05:14:18;;;;;;;37;20.1;;;;;;;4.33;84.14648;96075.81;;;;
2020/11/24 05:15:19;;;;;;;37;20.1;;;;;;;4.33;84.14648;96075.81;;;;
2020/11/24 05:16:20;;;;;;;37;20.1;;;;;;;4.33;84.14648;96075.81;;;;
2020/11/24 05:17:21;;;;;;;37;20.1;;;;;;;4.33;84.14648;96075.81;;;;
2020/11/24 05:18:22;;;;;;;37;20.1;;;;;;;4.33;84.14648;96075.81;;;;
2020/11/24 05:19:22;;;;;;;33.55;19.1;;;;;;;4.23;84.07617;96066.27;;;;
2020/11/24 05:20:22;;;;;;;33.55;19.1;;;;;;;4.23;84.07617;96066.27;;;;
2020/11/24 05:21:23;;;;;;;33.55;19.1;;;;;;;4.23;84.07617;96066.27;;;;
2020/11/24 05:22:24;;;;;;;33.55;19.1;;;;;;;4.23;84.07617;96066.27;;;;
2020/11/24 05:23:25;;;;;;;33.55;19.1;;;;;;;4.23;84.07617;96066.27;;;;
2020/11/24 05:24:25;;;;;;;33.55;19.1;;;;;;;4.23;84.07617;96066.27;;;;
2020/11/24 05:25:26;;;;;;;33.55;19.1;;;;;;;4.23;84.07617;96066.27;;;;
2020/11/24 05:26:27;;;;;;;33.55;19.1;;;;;;;4.23;84.07617;96066.27;;;;
2020/11/24 05:27:30;;;;;;;33.55;19.1;;;;;;;4.23;84.07617;96066.27;;;;
2020/11/24 05:28:31;;;;;;;33.55;19.1;;;;;;;4.23;84.07617;96066.27;;;;
2020/11/24 05:29:31;;;;;;;33.55;19.1;;;;;;;4.23;84.07617;96066.27;;;;
2020/11/24 05:30:32;;;;;;;37.85;20.2;;;;;;;4.16;84.13477;96082.69;;;;
2020/11/24 05:31:32;;;;;;;37.85;20.2;;;;;;;4.16;84.13477;96082.69;;;;
2020/11/24 05:32:34;;;;;;;37.85;20.2;;;;;;;4.16;84.13477;96082.69;;;;
2020/11/24 05:33:37;;;;;;;37.85;20.2;;;;;;;4.16;84.13477;96082.69;;;;
2020/11/24 05:34:42;;;;;;;37.85;20.2;;;;;;;4.16;84.13477;96082.69;;;;
2020/11/24 05:35:48;;;;;;;37.85;20.2;;;;;;;4.16;84.13477;96082.69;;;;
2020/11/24 05:36:52;;;;;;;37.85;20.2;;;;;;;4.16;84.13477;96082.69;;;;
2020/11/24 05:37:56;;;;;;;37.85;20.2;;;;;;;4.16;84.13477;96082.69;;;;
2020/11/24 05:38:58;;;;;;;37.85;20.2;;;;;;;4.16;84.13477;96082.69;;;;
2020/11/24 05:40:04;;;;;;;37.85;20.2;;;;;;;4.16;84.13477;96082.69;;;;
2020/11/24 05:41:06;;;;;;;32.5;18.6;;;;;;;4.06;84.17773;96090.19;;;;
2020/11/24 05:42:08;;;;;;;32.5;18.6;;;;;;;4.06;84.17773;96090.19;;;;
2020/11/24 05:43:12;;;;;;;32.5;18.6;;;;;;;4.06;84.17773;96090.19;;;;
2020/11/24 05:44:13;;;;;;;32.5;18.6;;;;;;;4.06;84.17773;96090.19;;;;